Time,TemperatureF,DewpointF,PressureIn,WindDirection,WindDirectionDegrees,WindSpeedMPH,WindSpeedGustMPH,Humidity,HourlyPrecipIn,Conditions,Clouds,dailyrainin,SoftwareType,DateUTC
2013-02-14 00:00:00,36.1,35.1,30.52,NW,309,0.0,0.0,96,0.00,,SCT110,0.01,VWS V14.01,2013-02-14 08:00:00,
2013-02-14 00:05:00,35.8,34.8,30.52,NW,309,0.0,0.0,96,0.00,,CLR,0.00,VWS V14.01,2013-02-14 08:05:00,
2013-02-14 00:10:00,35.4,34.4,30.52,NW,309,0.0,0.0,96,0.00,,CLR,0.00,VWS V14.01,2013-02-14 08:10:00,
2013-02-14 00:15:00,35.4,34.4,30.52,NW,310,0.0,0.0,96,0.00,,CLR,0.00,VWS V14.01,2013-02-14 08:15:00,
2013-02-14 00:20:00,35.3,34.3,30.52,NW,310,0.0,0.0,96,0.00,,CLR,0.00,VWS V14.01,2013-02-14 08:20:00,
2013-02-14 00:25:00,35.5,34.5,30.53,NW,309,0.0,0.0,96,0.00,,CLR,0.00,VWS V14.01,2013-02-14 08:25:00,
2013-02-14 00:30:00,35.6,34.6,30.53,NW,310,0.0,0.0,96,0.00,,CLR,0.00,VWS V14.01,2013-02-14 08:30:00,
2013-02-14 00:35:00,35.4,34.4,30.53,NW,309,0.0,0.0,96,0.00,,CLR,0.00,VWS V14.01,2013-02-14 08:35:00,
2013-02-14 00:40:00,35.3,34.3,30.54,ENE,62,0.0,1.0,96,0.00,,CLR,0.00,VWS V14.01,2013-02-14 08:40:00,
2013-02-14 00:45:00,35.3,34.3,30.53,ENE,61,0.0,0.0,96,0.00,,FEW075,0.00,VWS V14.01,2013-02-14 08:45:00,
2013-02-14 00:50:00,35.1,34.1,30.53,ENE,62,0.0,0.0,96,0.00,,FEW075,0.00,VWS V14.01,2013-02-14 08:50:00,
2013-02-14 00:55:00,34.7,33.7,30.53,ENE,62,0.0,0.0,96,0.00,,FEW075,0.00,VWS V14.01,2013-02-14 08:55:00,
2013-02-14 01:00:00,34.7,33.7,30.53,ENE,62,0.0,0.0,96,0.00,,FEW075,0.00,VWS V14.01,2013-02-14 09:00:00,
2013-02-14 01:05:00,34.8,33.8,30.53,ENE,61,0.0,0.0,96,0.00,,SCT075,0.00,VWS V14.01,2013-02-14 09:05:00,
2013-02-14 01:10:00,34.8,33.8,30.53,ENE,62,0.0,0.0,96,0.00,,SCT075,0.00,VWS V14.01,2013-02-14 09:10:00,
2013-02-14 01:15:00,34.8,33.8,30.53,ENE,62,0.0,0.0,96,0.00,,SCT075,0.00,VWS V14.01,2013-02-14 09:15:00,
2013-02-14 01:20:00,35.0,34.0,30.52,ENE,62,0.0,0.0,96,0.00,,SCT075,0.00,VWS V14.01,2013-02-14 09:20:00,
2013-02-14 01:25:00,35.2,34.2,30.53,ENE,61,0.0,0.0,96,0.00,,BKN100,0.00,VWS V14.01,2013-02-14 09:25:00,
2013-02-14 01:30:00,35.5,34.5,30.53,ENE,62,0.0,0.0,96,0.00,,BKN100,0.00,VWS V14.01,2013-02-14 09:30:00,
2013-02-14 01:35:00,35.5,34.5,30.53,ENE,62,0.0,0.0,96,0.00,,BKN100,0.00,VWS V14.01,2013-02-14 09:35:00,
2013-02-14 01:40:00,35.3,34.3,30.54,ENE,62,0.0,0.0,96,0.00,,BKN100,0.00,VWS V14.01,2013-02-14 09:40:00,
2013-02-14 01:45:00,35.3,34.3,30.54,ENE,62,0.0,0.0,96,0.00,,BKN100,0.00,VWS V14.01,2013-02-14 09:45:00,
2013-02-14 01:50:00,35.4,34.4,30.54,ENE,62,0.0,0.0,96,0.00,,BKN100,0.00,VWS V14.01,2013-02-14 09:50:00,
2013-02-14 01:55:00,35.3,34.3,30.54,ENE,61,0.0,0.0,96,0.00,,BKN100,0.00,VWS V14.01,2013-02-14 09:55:00,
2013-02-14 02:00:00,35.5,34.5,30.54,ENE,62,0.0,0.0,96,0.00,,BKN100,0.00,VWS V14.01,2013-02-14 10:00:00,
2013-02-14 02:05:00,35.7,34.7,30.54,ENE,62,0.0,0.0,96,0.00,,BKN100,0.00,VWS V14.01,2013-02-14 10:05:00,
2013-02-14 02:10:00,35.8,34.8,30.54,ENE,61,0.0,0.0,96,0.00,,BKN100,0.00,VWS V14.01,2013-02-14 10:10:00,
2013-02-14 02:15:00,35.8,34.8,30.54,ENE,62,0.0,0.0,96,0.00,,BKN100,0.00,VWS V14.01,2013-02-14 10:15:00,
2013-02-14 02:20:00,35.8,34.8,30.54,ENE,62,0.0,0.0,96,0.00,,BKN100,0.00,VWS V14.01,2013-02-14 10:20:00,
2013-02-14 02:25:00,35.9,34.9,30.53,ENE,62,0.0,0.0,96,0.00,,OVC070,0.00,VWS V14.01,2013-02-14 10:25:00,
2013-02-14 02:30:00,35.8,34.8,30.54,ENE,62,0.0,0.0,96,0.00,,OVC070,0.00,VWS V14.01,2013-02-14 10:30:00,
2013-02-14 02:35:00,35.9,34.9,30.54,ENE,62,0.0,0.0,96,0.00,,OVC070,0.00,VWS V14.01,2013-02-14 10:35:00,
2013-02-14 02:40:00,36.0,35.0,30.54,ENE,62,0.0,0.0,96,0.00,,OVC070,0.00,VWS V14.01,2013-02-14 10:40:00,
2013-02-14 02:45:00,36.0,35.0,30.54,ENE,62,0.0,0.0,96,0.00,,OVC070,0.00,VWS V14.01,2013-02-14 10:45:00,
2013-02-14 02:50:00,36.0,35.0,30.54,ENE,62,0.0,0.0,96,0.00,,OVC070,0.00,VWS V14.01,2013-02-14 10:50:00,
2013-02-14 02:55:00,36.0,35.0,30.54,ENE,62,0.0,0.0,96,0.00,,OVC070,0.00,VWS V14.01,2013-02-14 10:55:00,
2013-02-14 03:00:00,36.0,35.0,30.54,ENE,62,0.0,1.0,96,0.00,,OVC070,0.00,VWS V14.01,2013-02-14 11:00:00,
2013-02-14 03:04:00,35.9,34.9,30.54,ENE,62,0.0,0.0,96,0.00,,OVC070,0.00,VWS V14.01,2013-02-14 11:04:00,
2013-02-14 03:09:00,35.8,34.8,30.53,ENE,62,0.0,0.0,96,0.00,,OVC070,0.00,VWS V14.01,2013-02-14 11:09:00,
2013-02-14 03:14:00,35.9,34.9,30.53,ENE,62,0.0,0.0,96,0.00,,OVC070,0.00,VWS V14.01,2013-02-14 11:14:00,
2013-02-14 03:19:00,35.9,34.9,30.53,ENE,62,0.0,0.0,96,0.00,,OVC070,0.00,VWS V14.01,2013-02-14 11:19:00,
2013-02-14 03:24:00,35.8,34.8,30.52,ENE,62,0.0,0.0,96,0.00,,OVC060,0.00,VWS V14.01,2013-02-14 11:24:00,
2013-02-14 03:29:00,35.7,34.7,30.52,ENE,62,0.0,0.0,96,0.00,,OVC060,0.00,VWS V14.01,2013-02-14 11:29:00,
2013-02-14 03:34:00,35.7,34.7,30.53,ENE,62,0.0,0.0,96,0.00,,OVC060,0.00,VWS V14.01,2013-02-14 11:34:00,
2013-02-14 03:39:00,35.6,34.6,30.53,ENE,62,0.0,0.0,96,0.00,,OVC060,0.00,VWS V14.01,2013-02-14 11:39:00,
2013-02-14 03:44:00,35.5,34.7,30.53,ENE,62,0.0,0.0,97,0.00,,BKN060,0.00,VWS V14.01,2013-02-14 11:44:00,
2013-02-14 03:49:00,35.5,34.5,30.53,ENE,62,0.0,0.0,96,0.00,,BKN060,0.00,VWS V14.01,2013-02-14 11:49:00,
2013-02-14 03:54:00,35.7,34.9,30.52,ENE,62,0.0,0.0,97,0.00,,BKN060,0.00,VWS V14.01,2013-02-14 11:54:00,
2013-02-14 03:59:00,35.7,34.9,30.52,ENE,62,0.0,0.0,97,0.00,,BKN060,0.00,VWS V14.01,2013-02-14 11:59:00,
2013-02-14 04:04:00,35.7,34.9,30.53,ENE,62,0.0,0.0,97,0.00,,CLR,0.00,VWS V14.01,2013-02-14 12:04:00,
2013-02-14 04:09:00,35.7,34.9,30.53,ENE,62,0.0,0.0,97,0.00,,CLR,0.00,VWS V14.01,2013-02-14 12:09:00,
2013-02-14 04:14:00,35.6,34.8,30.53,ENE,62,0.0,0.0,97,0.00,,CLR,0.00,VWS V14.01,2013-02-14 12:14:00,
2013-02-14 04:19:00,35.6,34.8,30.53,ENE,62,0.0,1.0,97,0.00,,CLR,0.00,VWS V14.01,2013-02-14 12:19:00,
2013-02-14 04:24:00,35.6,34.8,30.53,ENE,61,0.0,0.0,97,0.00,,CLR,0.00,VWS V14.01,2013-02-14 12:24:00,
2013-02-14 04:29:00,35.5,34.7,30.53,ENE,62,0.0,0.0,97,0.00,,CLR,0.00,VWS V14.01,2013-02-14 12:29:00,
2013-02-14 04:34:00,35.4,34.6,30.53,ENE,62,0.0,0.0,97,0.00,,CLR,0.00,VWS V14.01,2013-02-14 12:34:00,
2013-02-14 04:39:00,35.3,34.5,30.53,ENE,62,0.0,0.0,97,0.00,,CLR,0.00,VWS V14.01,2013-02-14 12:39:00,
2013-02-14 04:44:00,35.4,34.6,30.53,ENE,61,0.0,0.0,97,0.00,,SCT060,0.00,VWS V14.01,2013-02-14 12:44:00,
2013-02-14 04:49:00,35.5,34.7,30.53,ENE,62,0.0,0.0,97,0.00,,SCT060,0.00,VWS V14.01,2013-02-14 12:49:00,
2013-02-14 04:54:00,35.5,34.7,30.53,ENE,62,0.0,0.0,97,0.00,,SCT060,0.00,VWS V14.01,2013-02-14 12:54:00,
2013-02-14 04:59:00,35.7,34.9,30.53,ENE,62,0.0,0.0,97,0.00,,SCT060,0.00,VWS V14.01,2013-02-14 12:59:00,
2013-02-14 05:04:00,35.9,35.1,30.53,ENE,62,0.0,0.0,97,0.00,,OVC075,0.00,VWS V14.01,2013-02-14 13:04:00,
2013-02-14 05:09:00,36.1,35.3,30.53,ENE,62,0.0,0.0,97,0.00,,OVC075,0.00,VWS V14.01,2013-02-14 13:09:00,
2013-02-14 05:14:00,36.1,35.3,30.53,ENE,62,0.0,0.0,97,0.00,,OVC075,0.00,VWS V14.01,2013-02-14 13:14:00,
2013-02-14 05:19:00,36.3,35.5,30.53,ENE,62,0.0,0.0,97,0.00,,OVC075,0.00,VWS V14.01,2013-02-14 13:19:00,
2013-02-14 05:24:00,36.4,35.6,30.53,ENE,62,0.0,1.0,97,0.00,,OVC075,0.00,VWS V14.01,2013-02-14 13:24:00,
2013-02-14 05:29:00,36.4,35.6,30.53,ENE,62,0.0,0.0,97,0.00,,OVC075,0.00,VWS V14.01,2013-02-14 13:29:00,
2013-02-14 05:34:00,36.5,35.7,30.53,ENE,62,0.0,0.0,97,0.00,,OVC075,0.00,VWS V14.01,2013-02-14 13:34:00,
2013-02-14 05:39:00,36.6,35.8,30.53,ENE,62,0.0,0.0,97,0.00,,OVC075,0.00,VWS V14.01,2013-02-14 13:39:00,
2013-02-14 05:44:00,36.7,35.9,30.53,ENE,64,0.0,0.0,97,0.00,,OVC095,0.00,VWS V14.01,2013-02-14 13:44:00,
2013-02-14 05:49:00,36.8,36.0,30.54,ENE,65,0.0,0.0,97,0.00,,OVC095,0.00,VWS V14.01,2013-02-14 13:49:00,
2013-02-14 05:54:00,37.1,36.3,30.54,ENE,64,0.0,0.0,97,0.00,,OVC095,0.00,VWS V14.01,2013-02-14 13:54:00,
2013-02-14 05:59:00,37.2,36.4,30.54,ENE,64,0.0,0.0,97,0.00,,OVC095,0.00,VWS V14.01,2013-02-14 13:59:00,
2013-02-14 06:04:00,37.4,36.6,30.54,ENE,64,0.0,0.0,97,0.00,,OVC065,0.00,VWS V14.01,2013-02-14 14:04:00,
2013-02-14 06:09:00,37.5,36.7,30.54,ENE,64,0.0,0.0,97,0.00,,OVC065,0.00,VWS V14.01,2013-02-14 14:09:00,
2013-02-14 06:14:00,37.6,36.8,30.54,ENE,64,0.0,0.0,97,0.00,,OVC065,0.00,VWS V14.01,2013-02-14 14:14:00,
2013-02-14 06:19:00,37.7,36.9,30.54,ENE,64,0.0,0.0,97,0.00,,OVC065,0.00,VWS V14.01,2013-02-14 14:19:00,
2013-02-14 06:24:00,37.7,36.9,30.54,ENE,64,0.0,0.0,97,0.00,,OVC027,0.00,VWS V14.01,2013-02-14 14:24:00,
2013-02-14 06:29:00,37.8,37.0,30.54,ENE,64,0.0,0.0,97,0.00,,OVC027,0.00,VWS V14.01,2013-02-14 14:29:00,
2013-02-14 06:34:00,37.9,37.1,30.54,ENE,64,0.0,0.0,97,0.00,,OVC027,0.00,VWS V14.01,2013-02-14 14:34:00,
2013-02-14 06:39:00,37.9,37.1,30.54,ENE,64,0.0,0.0,97,0.00,,OVC027,0.00,VWS V14.01,2013-02-14 14:39:00,
2013-02-14 06:44:00,38.0,37.2,30.53,ENE,64,0.0,1.0,97,0.00,,OVC050,0.00,VWS V14.01,2013-02-14 14:44:00,
2013-02-14 06:49:00,38.0,37.2,30.54,East,88,0.0,0.0,97,0.00,,OVC050,0.00,VWS V14.01,2013-02-14 14:49:00,
2013-02-14 06:54:00,38.0,37.2,30.53,East,89,0.0,0.0,97,0.00,,OVC050,0.00,VWS V14.01,2013-02-14 14:54:00,
2013-02-14 06:59:00,38.1,37.3,30.53,NW,308,0.0,1.0,97,0.00,,OVC050,0.00,VWS V14.01,2013-02-14 14:59:00,
2013-02-14 07:04:00,38.2,37.4,30.53,WNW,300,0.0,0.0,97,0.00,,OVC050,0.00,VWS V14.01,2013-02-14 15:04:00,
2013-02-14 07:09:00,38.3,37.5,30.53,NW,304,0.0,2.0,97,0.00,,OVC050,0.00,VWS V14.01,2013-02-14 15:09:00,
2013-02-14 07:14:00,38.4,37.6,30.53,WNW,300,0.0,0.0,97,0.00,,OVC050,0.00,VWS V14.01,2013-02-14 15:14:00,
2013-02-14 07:19:00,38.5,37.7,30.53,WNW,300,0.0,0.0,97,0.00,,OVC050,0.00,VWS V14.01,2013-02-14 15:19:00,
2013-02-14 07:24:00,38.6,37.8,30.53,SSE,168,0.0,1.0,97,0.00,,OVC060,0.00,VWS V14.01,2013-02-14 15:24:00,
2013-02-14 07:29:00,38.6,37.8,30.53,South,169,0.0,0.0,97,0.00,,OVC060,0.00,VWS V14.01,2013-02-14 15:29:00,
2013-02-14 07:34:00,38.7,37.9,30.54,South,169,1.0,1.0,97,0.00,,OVC060,0.00,VWS V14.01,2013-02-14 15:34:00,
2013-02-14 07:39:00,38.7,37.9,30.54,South,185,0.0,1.0,97,0.00,,OVC060,0.00,VWS V14.01,2013-02-14 15:39:00,
2013-02-14 07:44:00,38.8,38.0,30.54,South,185,0.0,0.0,97,0.00,,OVC075,0.00,VWS V14.01,2013-02-14 15:44:00,
2013-02-14 07:49:00,38.9,38.1,30.55,South,186,0.0,0.0,97,0.00,,OVC075,0.00,VWS V14.01,2013-02-14 15:49:00,
2013-02-14 07:54:00,39.0,38.2,30.55,South,178,0.0,0.0,97,0.00,,OVC075,0.00,VWS V14.01,2013-02-14 15:54:00,
2013-02-14 07:59:00,39.1,38.3,30.55,South,178,0.0,0.0,97,0.00,,OVC075,0.00,VWS V14.01,2013-02-14 15:59:00,
2013-02-14 08:04:00,39.1,38.3,30.56,South,178,0.0,0.0,97,0.00,,OVC060,0.00,VWS V14.01,2013-02-14 16:04:00,
2013-02-14 08:09:00,39.2,38.4,30.56,South,178,0.0,0.0,97,0.00,,OVC060,0.00,VWS V14.01,2013-02-14 16:09:00,
2013-02-14 08:14:00,39.3,38.5,30.56,South,178,0.0,0.0,97,0.00,,OVC060,0.00,VWS V14.01,2013-02-14 16:14:00,
2013-02-14 08:19:00,39.4,38.6,30.55,South,178,0.0,0.0,97,0.00,,OVC060,0.00,VWS V14.01,2013-02-14 16:19:00,
2013-02-14 08:24:00,39.6,38.8,30.55,South,179,0.0,1.0,97,0.00,,OVC042,0.00,VWS V14.01,2013-02-14 16:24:00,
2013-02-14 08:29:00,39.8,39.0,30.56,NW,315,0.0,0.0,97,0.00,,OVC042,0.00,VWS V14.01,2013-02-14 16:29:00,
2013-02-14 08:34:00,39.9,39.1,30.56,WNW,291,0.0,1.0,97,0.00,,OVC042,0.00,VWS V14.01,2013-02-14 16:34:00,
2013-02-14 08:39:00,39.9,38.8,30.56,NW,315,1.0,1.0,96,0.00,,OVC042,0.00,VWS V14.01,2013-02-14 16:39:00,
2013-02-14 08:44:00,40.0,39.0,30.56,NW,317,0.0,1.0,96,0.00,,OVC038,0.00,VWS V14.01,2013-02-14 16:44:00,
2013-02-14 08:49:00,40.0,39.0,30.56,NW,308,0.0,2.0,96,0.00,,OVC038,0.00,VWS V14.01,2013-02-14 16:49:00,
2013-02-14 08:54:00,40.1,39.0,30.55,NW,318,0.0,1.0,96,0.00,,OVC038,0.00,VWS V14.01,2013-02-14 16:54:00,
2013-02-14 08:59:00,40.2,39.2,30.56,WNW,295,0.0,0.0,96,0.00,,OVC038,0.00,VWS V14.01,2013-02-14 16:59:00,
2013-02-14 09:04:00,40.4,39.3,30.55,WNW,293,0.0,0.0,96,0.00,,OVC038,0.00,VWS V14.01,2013-02-14 17:04:00,
2013-02-14 09:09:00,40.4,39.3,30.56,WNW,294,0.0,0.0,96,0.00,,OVC038,0.00,VWS V14.01,2013-02-14 17:09:00,
2013-02-14 09:14:00,40.5,39.5,30.56,NNW,342,1.0,1.0,96,0.00,,OVC038,0.00,VWS V14.01,2013-02-14 17:14:00,
2013-02-14 09:19:00,40.5,39.5,30.56,NNW,336,0.0,0.0,96,0.00,,OVC038,0.00,VWS V14.01,2013-02-14 17:19:00,
2013-02-14 09:24:00,40.7,39.7,30.56,NNW,331,0.0,1.0,96,0.00,,OVC048,0.00,VWS V14.01,2013-02-14 17:24:00,
2013-02-14 09:29:00,40.7,39.7,30.55,NNW,331,0.0,0.0,96,0.00,,OVC048,0.00,VWS V14.01,2013-02-14 17:29:00,
2013-02-14 09:34:00,40.8,39.8,30.55,North,10,1.0,1.0,96,0.00,,OVC048,0.00,VWS V14.01,2013-02-14 17:34:00,
2013-02-14 09:39:00,40.9,39.8,30.55,North,11,0.0,0.0,96,0.00,,OVC048,0.00,VWS V14.01,2013-02-14 17:39:00,
2013-02-14 09:44:00,41.1,40.0,30.55,North,5,1.0,1.0,96,0.00,,OVC048,0.00,VWS V14.01,2013-02-14 17:44:00,
2013-02-14 09:49:00,41.1,40.0,30.56,SSW,206,0.0,1.0,96,0.01,,OVC048,0.01,VWS V14.01,2013-02-14 17:49:00,
2013-02-14 09:54:00,41.2,40.2,30.56,SSW,206,0.0,1.0,96,0.01,,OVC048,0.01,VWS V14.01,2013-02-14 17:54:00,
2013-02-14 09:59:00,41.3,40.2,30.56,NNW,327,0.0,1.0,96,0.01,,OVC048,0.01,VWS V14.01,2013-02-14 17:59:00,
2013-02-14 10:04:00,41.4,40.3,30.56,WSW,252,1.0,1.0,96,0.01,,OVC048,0.01,VWS V14.01,2013-02-14 18:04:00,
2013-02-14 10:09:00,41.4,40.3,30.56,SSW,207,1.0,1.0,96,0.01,,OVC034,0.01,VWS V14.01,2013-02-14 18:09:00,
2013-02-14 10:14:00,41.5,40.5,30.56,SSW,210,0.0,0.0,96,0.01,,OVC034,0.01,VWS V14.01,2013-02-14 18:14:00,
2013-02-14 10:19:00,41.7,40.7,30.56,SSW,210,0.0,1.0,96,0.01,,OVC034,0.01,VWS V14.01,2013-02-14 18:19:00,
2013-02-14 10:24:00,41.9,40.8,30.56,SW,226,1.0,1.0,96,0.01,,OVC034,0.01,VWS V14.01,2013-02-14 18:24:00,
2013-02-14 10:29:00,42.0,40.9,30.56,SW,226,0.0,0.0,96,0.01,,OVC034,0.01,VWS V14.01,2013-02-14 18:29:00,
2013-02-14 10:34:00,42.1,40.8,30.56,SSW,205,1.0,1.0,95,0.01,,OVC034,0.01,VWS V14.01,2013-02-14 18:34:00,
2013-02-14 10:39:00,42.3,41.0,30.56,SSW,198,0.0,0.0,95,0.01,,OVC034,0.01,VWS V14.01,2013-02-14 18:39:00,
2013-02-14 10:44:00,42.5,41.2,30.56,SSW,198,0.0,1.0,95,0.01,,OVC024,0.01,VWS V14.01,2013-02-14 18:44:00,
2013-02-14 10:49:00,42.6,41.3,30.56,SSW,198,0.0,0.0,95,0.00,,OVC024,0.01,VWS V14.01,2013-02-14 18:49:00,
2013-02-14 10:54:00,42.7,41.4,30.56,SSW,198,0.0,0.0,95,0.00,,OVC024,0.01,VWS V14.01,2013-02-14 18:54:00,
2013-02-14 10:59:00,43.1,41.8,30.56,SSW,198,1.0,1.0,95,0.00,,OVC024,0.01,VWS V14.01,2013-02-14 18:59:00,
2013-02-14 11:04:00,43.1,41.5,30.56,SSW,198,1.0,1.0,94,0.00,,OVC024,0.01,VWS V14.01,2013-02-14 19:04:00,
2013-02-14 11:09:00,43.1,41.5,30.56,SSW,198,0.0,1.0,94,0.00,,OVC024,0.01,VWS V14.01,2013-02-14 19:09:00,
2013-02-14 11:14:00,43.3,42.0,30.56,SSW,198,0.0,0.0,95,0.00,,OVC024,0.01,VWS V14.01,2013-02-14 19:14:00,
2013-02-14 11:19:00,43.7,42.1,30.56,SSW,198,0.0,0.0,94,0.00,,OVC024,0.01,VWS V14.01,2013-02-14 19:19:00,
2013-02-14 11:24:00,44.0,42.4,30.56,SSW,198,0.0,0.0,94,0.00,,OVC024,0.01,VWS V14.01,2013-02-14 19:24:00,
2013-02-14 11:29:00,44.1,42.2,30.56,WNW,284,1.0,3.0,93,0.00,,OVC024,0.01,VWS V14.01,2013-02-14 19:29:00,
2013-02-14 11:34:00,44.1,41.9,30.56,WNW,300,0.0,1.0,92,0.00,,OVC024,0.01,VWS V14.01,2013-02-14 19:34:00,
2013-02-14 11:39:00,44.2,42.0,30.56,North,360,0.0,4.0,92,0.00,,OVC024,0.01,VWS V14.01,2013-02-14 19:39:00,
2013-02-14 11:44:00,44.5,42.6,30.56,North,360,0.0,0.0,93,0.00,,OVC024,0.01,VWS V14.01,2013-02-14 19:44:00,
2013-02-14 11:49:00,44.8,42.9,30.56,NW,325,2.0,2.0,93,0.00,,OVC024,0.01,VWS V14.01,2013-02-14 19:49:00,
2013-02-14 11:54:00,44.8,42.6,30.56,NNW,335,1.0,2.0,92,0.00,,OVC024,0.01,VWS V14.01,2013-02-14 19:54:00,
2013-02-14 11:59:00,44.9,42.7,30.56,NW,321,0.0,2.0,92,0.00,,OVC024,0.01,VWS V14.01,2013-02-14 19:59:00,
2013-02-14 12:04:00,45.2,43.0,30.56,WNW,295,0.0,3.0,92,0.00,,OVC024,0.01,VWS V14.01,2013-02-14 20:04:00,
2013-02-14 12:09:00,45.3,42.8,30.56,West,259,1.0,3.0,91,0.00,,OVC024,0.01,VWS V14.01,2013-02-14 20:09:00,
2013-02-14 12:14:00,45.2,42.7,30.56,NW,311,0.0,2.0,91,0.00,,OVC024,0.01,VWS V14.01,2013-02-14 20:14:00,
2013-02-14 12:19:00,45.6,43.4,30.56,NW,314,0.0,0.0,92,0.00,,OVC024,0.01,VWS V14.01,2013-02-14 20:19:00,
2013-02-14 12:24:00,45.9,43.4,30.56,NNW,337,0.0,1.0,91,0.00,,OVC024,0.01,VWS V14.01,2013-02-14 20:24:00,
2013-02-14 12:29:00,46.0,43.5,30.55,WNW,300,0.0,1.0,91,0.00,,OVC024,0.01,VWS V14.01,2013-02-14 20:29:00,
2013-02-14 12:34:00,46.1,43.3,30.55,NNE,24,0.0,2.0,90,0.00,,OVC024,0.01,VWS V14.01,2013-02-14 20:34:00,
2013-02-14 12:39:00,46.4,43.6,30.56,WNW,293,3.0,3.0,90,0.00,,OVC024,0.01,VWS V14.01,2013-02-14 20:39:00,
2013-02-14 12:44:00,46.4,43.6,30.56,NW,322,2.0,3.0,90,0.00,,OVC022,0.01,VWS V14.01,2013-02-14 20:44:00,
2013-02-14 12:49:00,46.5,43.7,30.55,SW,225,2.0,3.0,90,0.00,,OVC022,0.01,VWS V14.01,2013-02-14 20:49:00,
2013-02-14 12:54:00,46.7,43.9,30.56,SSE,164,0.0,1.0,90,0.00,,OVC022,0.01,VWS V14.01,2013-02-14 20:54:00,
2013-02-14 12:59:00,46.6,43.8,30.56,NW,316,0.0,0.0,90,0.00,,OVC022,0.01,VWS V14.01,2013-02-14 20:59:00,
2013-02-14 13:04:00,46.7,43.9,30.55,NW,308,4.0,4.0,90,0.00,,OVC022,0.01,VWS V14.01,2013-02-14 21:04:00,
2013-02-14 13:08:00,46.6,43.8,30.56,WNW,301,0.0,4.0,90,0.00,,OVC022,0.01,VWS V14.01,2013-02-14 21:08:00,
2013-02-14 13:13:00,46.5,43.7,30.56,WNW,303,2.0,4.0,90,0.00,,OVC022,0.01,VWS V14.01,2013-02-14 21:13:00,
2013-02-14 13:18:00,46.6,43.5,30.55,WNW,302,3.0,6.0,89,0.00,,OVC022,0.01,VWS V14.01,2013-02-14 21:18:00,
2013-02-14 13:23:00,46.5,43.4,30.55,WNW,302,5.0,6.0,89,0.00,,OVC020,0.01,VWS V14.01,2013-02-14 21:23:00,
2013-02-14 13:28:00,46.4,43.6,30.55,SW,222,0.0,5.0,90,0.00,,OVC020,0.01,VWS V14.01,2013-02-14 21:28:00,
2013-02-14 13:33:00,46.4,43.6,30.55,WNW,296,5.0,5.0,90,0.00,,OVC020,0.01,VWS V14.01,2013-02-14 21:33:00,
2013-02-14 13:38:00,46.5,44.0,30.55,NNW,327,3.0,6.0,91,0.00,,OVC020,0.01,VWS V14.01,2013-02-14 21:38:00,
2013-02-14 13:43:00,46.5,44.0,30.55,West,281,0.0,1.0,91,0.00,,OVC020,0.01,VWS V14.01,2013-02-14 21:43:00,
2013-02-14 13:48:00,46.5,44.0,30.55,NW,314,1.0,5.0,91,0.00,,OVC020,0.01,VWS V14.01,2013-02-14 21:48:00,
2013-02-14 13:53:00,46.5,44.0,30.55,NW,307,2.0,9.0,91,0.00,,OVC020,0.01,VWS V14.01,2013-02-14 21:53:00,
2013-02-14 13:58:00,46.5,44.0,30.55,NNW,335,2.0,3.0,91,0.00,,OVC020,0.01,VWS V14.01,2013-02-14 21:58:00,
2013-02-14 14:03:00,46.5,44.0,30.55,NW,311,2.0,3.0,91,0.00,,OVC020,0.01,VWS V14.01,2013-02-14 22:03:00,
2013-02-14 14:08:00,46.7,44.2,30.55,West,272,1.0,3.0,91,0.00,,OVC018,0.01,VWS V14.01,2013-02-14 22:08:00,
2013-02-14 14:13:00,46.7,44.2,30.55,WNW,297,4.0,4.0,91,0.00,,OVC018,0.01,VWS V14.01,2013-02-14 22:13:00,
2013-02-14 14:18:00,46.8,44.3,30.55,WSW,256,0.0,0.0,91,0.00,,OVC018,0.01,VWS V14.01,2013-02-14 22:18:00,
2013-02-14 14:23:00,47.0,44.5,30.55,NW,314,0.0,0.0,91,0.00,,OVC018,0.01,VWS V14.01,2013-02-14 22:23:00,
2013-02-14 14:28:00,47.1,44.6,30.55,WNW,296,0.0,1.0,91,0.00,,OVC018,0.01,VWS V14.01,2013-02-14 22:28:00,
2013-02-14 14:33:00,47.1,44.6,30.55,NNW,338,0.0,1.0,91,0.00,,OVC018,0.01,VWS V14.01,2013-02-14 22:33:00,
2013-02-14 14:38:00,47.1,44.6,30.55,WNW,298,1.0,2.0,91,0.00,,OVC018,0.01,VWS V14.01,2013-02-14 22:38:00,
2013-02-14 14:43:00,47.1,44.6,30.55,SE,136,0.0,3.0,91,0.00,,OVC018,0.01,VWS V14.01,2013-02-14 22:43:00,
2013-02-14 14:48:00,47.0,44.8,30.55,SSW,194,0.0,2.0,92,0.00,,OVC018,0.01,VWS V14.01,2013-02-14 22:48:00,
2013-02-14 14:53:00,46.8,44.6,30.55,NW,314,0.0,1.0,92,0.00,,OVC018,0.01,VWS V14.01,2013-02-14 22:53:00,
2013-02-14 14:58:00,46.8,44.9,30.55,NW,315,0.0,2.0,93,0.00,,OVC018,0.01,VWS V14.01,2013-02-14 22:58:00,
2013-02-14 15:03:00,46.7,44.8,30.55,West,274,1.0,3.0,93,0.00,,OVC018,0.01,VWS V14.01,2013-02-14 23:03:00,
2013-02-14 15:08:00,46.6,44.7,30.55,WNW,302,1.0,4.0,93,0.00,,OVC020,0.01,VWS V14.01,2013-02-14 23:08:00,
2013-02-14 15:13:00,46.5,44.9,30.55,WNW,298,1.0,2.0,94,0.00,,OVC020,0.01,VWS V14.01,2013-02-14 23:13:00,
2013-02-14 15:18:00,46.4,44.8,30.55,WNW,300,1.0,2.0,94,0.00,,OVC020,0.01,VWS V14.01,2013-02-14 23:18:00,
2013-02-14 15:23:00,46.5,44.9,30.54,West,268,0.0,3.0,94,0.00,,OVC020,0.01,VWS V14.01,2013-02-14 23:23:00,
2013-02-14 15:28:00,46.5,44.9,30.55,NNW,332,0.0,0.0,94,0.00,,OVC022,0.01,VWS V14.01,2013-02-14 23:28:00,
2013-02-14 15:33:00,46.6,45.2,30.54,WNW,285,1.0,2.0,95,0.00,,OVC022,0.01,VWS V14.01,2013-02-14 23:33:00,
2013-02-14 15:38:00,46.7,45.3,30.54,SW,225,0.0,0.0,95,0.00,,OVC022,0.01,VWS V14.01,2013-02-14 23:38:00,
2013-02-14 15:43:00,46.8,45.5,30.54,SW,225,0.0,0.0,95,0.00,,OVC022,0.01,VWS V14.01,2013-02-14 23:43:00,
2013-02-14 15:48:00,46.9,45.5,30.54,SW,225,0.0,1.0,95,0.00,,OVC034,0.01,VWS V14.01,2013-02-14 23:48:00,
2013-02-14 15:53:00,46.9,45.3,30.54,SW,225,0.0,0.0,94,0.00,,OVC034,0.01,VWS V14.01,2013-02-14 23:53:00,
2013-02-14 15:58:00,46.8,45.2,30.54,SW,222,0.0,1.0,94,0.00,,OVC034,0.01,VWS V14.01,2013-02-14 23:58:00,
2013-02-14 16:03:00,46.8,45.2,30.54,SW,222,0.0,0.0,94,0.00,,OVC034,0.01,VWS V14.01,2013-02-15 00:03:00,
2013-02-14 16:08:00,46.9,45.3,30.53,SW,222,0.0,0.0,94,0.00,,OVC005,0.01,VWS V14.01,2013-02-15 00:08:00,
2013-02-14 16:13:00,46.9,45.3,30.53,SW,222,0.0,0.0,94,0.00,,OVC005,0.01,VWS V14.01,2013-02-15 00:13:00,
2013-02-14 16:18:00,47.1,45.5,30.53,South,173,0.0,0.0,94,0.00,,OVC005,0.01,VWS V14.01,2013-02-15 00:18:00,
2013-02-14 16:23:00,47.1,45.5,30.53,South,173,0.0,0.0,94,0.00,,OVC005,0.01,VWS V14.01,2013-02-15 00:23:00,
2013-02-14 16:28:00,47.2,45.6,30.53,South,173,0.0,0.0,94,0.00,,OVC065,0.01,VWS V14.01,2013-02-15 00:28:00,
2013-02-14 16:33:00,47.2,45.6,30.53,South,173,0.0,0.0,94,0.00,,OVC065,0.01,VWS V14.01,2013-02-15 00:33:00,
2013-02-14 16:38:00,47.1,45.2,30.53,SE,128,0.0,2.0,93,0.00,,OVC065,0.01,VWS V14.01,2013-02-15 00:38:00,
2013-02-14 16:43:00,47.1,45.2,30.53,SE,128,0.0,0.0,93,0.00,,OVC065,0.01,VWS V14.01,2013-02-15 00:43:00,
2013-02-14 16:48:00,47.1,45.5,30.53,SE,128,0.0,1.0,94,0.00,,OVC065,0.01,VWS V14.01,2013-02-15 00:48:00,
2013-02-14 16:53:00,47.2,45.3,30.53,SE,128,0.0,0.0,93,0.00,,OVC065,0.01,VWS V14.01,2013-02-15 00:53:00,
2013-02-14 16:58:00,47.1,45.2,30.53,SE,128,0.0,0.0,93,0.00,,OVC065,0.01,VWS V14.01,2013-02-15 00:58:00,
2013-02-14 17:03:00,47.1,45.5,30.53,SE,128,0.0,0.0,94,0.00,,OVC065,0.01,VWS V14.01,2013-02-15 01:03:00,
2013-02-14 17:08:00,47.0,45.1,30.53,SE,128,0.0,0.0,93,0.00,,OVC027,0.01,VWS V14.01,2013-02-15 01:08:00,
2013-02-14 17:13:00,47.0,45.4,30.53,SE,128,0.0,0.0,94,0.00,,OVC027,0.01,VWS V14.01,2013-02-15 01:13:00,
2013-02-14 17:18:00,47.0,45.4,30.53,SE,128,0.0,0.0,94,0.00,,OVC027,0.01,VWS V14.01,2013-02-15 01:18:00,
2013-02-14 17:23:00,46.9,45.3,30.53,SE,128,0.0,0.0,94,0.00,,OVC027,0.01,VWS V14.01,2013-02-15 01:23:00,
2013-02-14 17:28:00,46.9,45.3,30.53,SE,128,0.0,0.0,94,0.00,,OVC037,0.01,VWS V14.01,2013-02-15 01:28:00,
2013-02-14 17:33:00,46.8,45.2,30.53,SE,128,0.0,0.0,94,0.00,,OVC037,0.01,VWS V14.01,2013-02-15 01:33:00,
2013-02-14 17:38:00,46.7,45.1,30.53,SE,128,0.0,0.0,94,0.00,,OVC037,0.01,VWS V14.01,2013-02-15 01:38:00,
2013-02-14 17:43:00,46.5,44.9,30.53,SE,128,0.0,0.0,94,0.00,,OVC037,0.01,VWS V14.01,2013-02-15 01:43:00,
2013-02-14 17:48:00,46.2,44.3,30.53,SE,128,0.0,0.0,93,0.00,,OVC035,0.01,VWS V14.01,2013-02-15 01:48:00,
2013-02-14 17:53:00,45.9,44.3,30.53,SE,128,0.0,0.0,94,0.00,,OVC035,0.01,VWS V14.01,2013-02-15 01:53:00,
2013-02-14 17:58:00,45.7,44.1,30.53,SE,128,0.0,0.0,94,0.00,,OVC035,0.01,VWS V14.01,2013-02-15 01:58:00,
2013-02-14 18:03:00,45.5,44.2,30.53,SE,128,0.0,0.0,95,0.00,,OVC035,0.01,VWS V14.01,2013-02-15 02:03:00,
2013-02-14 18:08:00,45.3,44.0,30.53,SE,128,0.0,0.0,95,0.00,,OVC035,0.01,VWS V14.01,2013-02-15 02:08:00,
2013-02-14 18:13:00,45.1,43.8,30.52,SE,128,0.0,0.0,95,0.00,,OVC035,0.01,VWS V14.01,2013-02-15 02:13:00,
2013-02-14 18:18:00,44.8,43.5,30.52,SE,128,0.0,0.0,95,0.00,,OVC035,0.01,VWS V14.01,2013-02-15 02:18:00,
2013-02-14 18:23:00,44.5,43.2,30.52,SE,128,0.0,0.0,95,0.00,,OVC035,0.01,VWS V14.01,2013-02-15 02:23:00,
2013-02-14 18:28:00,44.3,43.0,30.52,SE,128,0.0,0.0,95,0.00,,OVC033,0.01,VWS V14.01,2013-02-15 02:28:00,
2013-02-14 18:33:00,44.2,43.1,30.52,SE,128,0.0,0.0,96,0.00,,OVC033,0.01,VWS V14.01,2013-02-15 02:33:00,
2013-02-14 18:38:00,44.0,42.9,30.52,SE,128,0.0,0.0,96,0.00,,OVC033,0.01,VWS V14.01,2013-02-15 02:38:00,
2013-02-14 18:43:00,43.9,42.8,30.52,SE,128,0.0,0.0,96,0.00,,OVC033,0.01,VWS V14.01,2013-02-15 02:43:00,
2013-02-14 18:48:00,43.7,42.6,30.52,SE,128,0.0,0.0,96,0.00,,OVC035,0.01,VWS V14.01,2013-02-15 02:48:00,
2013-02-14 18:53:00,43.6,42.5,30.52,SE,128,0.0,0.0,96,0.00,,OVC035,0.01,VWS V14.01,2013-02-15 02:53:00,
2013-02-14 18:58:00,43.5,42.4,30.52,SE,128,0.0,0.0,96,0.00,,OVC035,0.01,VWS V14.01,2013-02-15 02:58:00,
2013-02-14 19:03:00,43.3,42.2,30.52,SE,128,0.0,0.0,96,0.00,,OVC035,0.01,VWS V14.01,2013-02-15 03:03:00,
2013-02-14 19:08:00,43.2,42.1,30.52,SE,128,0.0,0.0,96,0.00,,OVC035,0.01,VWS V14.01,2013-02-15 03:08:00,
2013-02-14 19:13:00,43.1,42.0,30.52,SE,128,0.0,0.0,96,0.00,,OVC035,0.01,VWS V14.01,2013-02-15 03:13:00,
2013-02-14 19:18:00,42.9,41.8,30.52,SE,128,0.0,0.0,96,0.00,,OVC024,0.01,VWS V14.01,2013-02-15 03:18:00,
2013-02-14 19:23:00,42.9,41.8,30.52,SE,128,0.0,0.0,96,0.00,,OVC024,0.01,VWS V14.01,2013-02-15 03:23:00,
2013-02-14 19:28:00,42.8,41.7,30.52,SE,128,0.0,0.0,96,0.00,,BKN022,0.01,VWS V14.01,2013-02-15 03:28:00,
2013-02-14 19:33:00,42.6,41.5,30.52,SE,128,0.0,0.0,96,0.00,,BKN022,0.01,VWS V14.01,2013-02-15 03:33:00,
2013-02-14 19:38:00,42.6,41.5,30.52,SE,128,0.0,0.0,96,0.00,,BKN022,0.01,VWS V14.01,2013-02-15 03:38:00,
2013-02-14 19:43:00,42.6,41.5,30.52,SE,128,0.0,0.0,96,0.00,,BKN022,0.01,VWS V14.01,2013-02-15 03:43:00,
2013-02-14 19:48:00,42.5,41.4,30.52,SE,128,0.0,0.0,96,0.00,,BKN022,0.01,VWS V14.01,2013-02-15 03:48:00,
2013-02-14 19:53:00,42.8,41.7,30.52,SE,128,0.0,0.0,96,0.00,,BKN022,0.01,VWS V14.01,2013-02-15 03:53:00,
2013-02-14 19:58:00,43.1,42.0,30.53,SE,128,0.0,0.0,96,0.00,,BKN022,0.01,VWS V14.01,2013-02-15 03:58:00,
2013-02-14 20:03:00,43.1,42.0,30.53,SE,128,0.0,0.0,96,0.00,,BKN022,0.01,VWS V14.01,2013-02-15 04:03:00,
2013-02-14 20:08:00,43.1,42.0,30.53,SE,128,0.0,0.0,96,0.00,,OVC009,0.01,VWS V14.01,2013-02-15 04:08:00,
2013-02-14 20:13:00,43.0,41.9,30.53,SE,128,0.0,0.0,96,0.00,,OVC009,0.01,VWS V14.01,2013-02-15 04:13:00,
2013-02-14 20:18:00,43.1,42.0,30.52,SE,128,0.0,0.0,96,0.00,,OVC009,0.01,VWS V14.01,2013-02-15 04:18:00,
2013-02-14 20:23:00,43.1,42.0,30.52,SE,128,0.0,0.0,96,0.00,,OVC009,0.01,VWS V14.01,2013-02-15 04:23:00,
2013-02-14 20:28:00,43.0,41.9,30.53,SE,128,0.0,0.0,96,0.00,,OVC009,0.01,VWS V14.01,2013-02-15 04:28:00,
2013-02-14 20:33:00,42.9,41.8,30.53,SE,128,0.0,0.0,96,0.00,,OVC009,0.01,VWS V14.01,2013-02-15 04:33:00,
2013-02-14 20:38:00,42.9,41.8,30.53,SE,128,0.0,0.0,96,0.00,,OVC009,0.01,VWS V14.01,2013-02-15 04:38:00,
2013-02-14 20:43:00,42.9,41.8,30.53,SE,128,0.0,1.0,96,0.00,,OVC009,0.01,VWS V14.01,2013-02-15 04:43:00,
2013-02-14 20:48:00,43.0,41.9,30.53,SE,128,0.0,1.0,96,0.00,,OVC009,0.01,VWS V14.01,2013-02-15 04:48:00,
2013-02-14 20:53:00,43.0,41.9,30.53,SE,128,0.0,0.0,96,0.00,,OVC009,0.01,VWS V14.01,2013-02-15 04:53:00,
2013-02-14 20:58:00,43.0,41.9,30.53,SE,128,0.0,0.0,96,0.00,,OVC009,0.01,VWS V14.01,2013-02-15 04:58:00,
2013-02-14 21:00:00,43.0,41.9,30.53,SE,128,0.0,0.0,96,0.00,,OVC009,0.01,VWS V14.01,2013-02-15 05:00:00,
2013-02-14 21:05:00,42.9,41.8,30.53,SE,128,0.0,0.0,96,0.00,,OVC005,0.01,VWS V14.01,2013-02-15 05:05:00,
2013-02-14 21:10:00,42.9,41.8,30.53,SE,128,0.0,0.0,96,0.00,,OVC005,0.01,VWS V14.01,2013-02-15 05:10:00,
2013-02-14 21:15:00,43.1,42.0,30.53,SE,128,0.0,0.0,96,0.00,,OVC005,0.01,VWS V14.01,2013-02-15 05:15:00,
2013-02-14 21:20:00,43.1,42.0,30.53,SE,128,0.0,0.0,96,0.00,,OVC005,0.01,VWS V14.01,2013-02-15 05:20:00,
2013-02-14 21:25:00,43.2,42.1,30.53,SE,128,0.0,0.0,96,0.00,,OVC006,0.01,VWS V14.01,2013-02-15 05:25:00,
2013-02-14 21:30:00,43.2,42.1,30.53,SE,128,0.0,0.0,96,0.00,,OVC006,0.01,VWS V14.01,2013-02-15 05:30:00,
2013-02-14 21:35:00,43.5,42.4,30.53,SE,128,0.0,0.0,96,0.00,,OVC006,0.01,VWS V14.01,2013-02-15 05:35:00,
2013-02-14 21:40:00,43.6,42.5,30.54,SE,128,0.0,0.0,96,0.00,,OVC006,0.01,VWS V14.01,2013-02-15 05:40:00,
2013-02-14 21:45:00,43.7,42.6,30.53,SE,128,0.0,0.0,96,0.00,,OVC013,0.01,VWS V14.01,2013-02-15 05:45:00,
2013-02-14 21:50:00,43.8,42.7,30.53,SE,128,0.0,0.0,96,0.00,,OVC013,0.01,VWS V14.01,2013-02-15 05:50:00,
2013-02-14 21:55:00,43.9,42.8,30.53,SE,128,0.0,0.0,96,0.00,,OVC013,0.01,VWS V14.01,2013-02-15 05:55:00,
2013-02-14 22:00:00,43.9,42.8,30.53,SE,128,0.0,0.0,96,0.00,,OVC013,0.01,VWS V14.01,2013-02-15 06:00:00,
2013-02-14 22:05:00,43.9,42.8,30.53,SE,128,0.0,0.0,96,0.00,,OVC010,0.01,VWS V14.01,2013-02-15 06:05:00,
2013-02-14 22:10:00,43.8,42.7,30.53,SE,128,0.0,1.0,96,0.00,,OVC010,0.01,VWS V14.01,2013-02-15 06:10:00,
2013-02-14 22:15:00,43.7,42.6,30.53,ESE,118,1.0,2.0,96,0.00,,OVC010,0.01,VWS V14.01,2013-02-15 06:15:00,
2013-02-14 22:20:00,43.7,42.6,30.53,ESE,118,0.0,1.0,96,0.00,,OVC010,0.01,VWS V14.01,2013-02-15 06:20:00,
2013-02-14 22:25:00,43.8,42.7,30.53,ESE,118,0.0,0.0,96,0.00,,OVC012,0.01,VWS V14.01,2013-02-15 06:25:00,
2013-02-14 22:30:00,43.8,42.7,30.53,ESE,118,0.0,0.0,96,0.00,,OVC012,0.01,VWS V14.01,2013-02-15 06:30:00,
2013-02-14 22:35:00,43.8,42.7,30.52,ESE,118,0.0,0.0,96,0.00,,OVC012,0.01,VWS V14.01,2013-02-15 06:35:00,
2013-02-14 22:40:00,43.9,42.8,30.52,ESE,118,0.0,0.0,96,0.00,,OVC012,0.01,VWS V14.01,2013-02-15 06:40:00,
2013-02-14 22:45:00,43.9,42.8,30.52,ESE,118,0.0,0.0,96,0.00,,OVC014,0.01,VWS V14.01,2013-02-15 06:45:00,
2013-02-14 22:50:00,43.9,42.8,30.52,ESE,118,0.0,0.0,96,0.00,,OVC014,0.01,VWS V14.01,2013-02-15 06:50:00,
2013-02-14 22:55:00,43.9,42.8,30.52,ESE,118,0.0,0.0,96,0.00,,OVC014,0.01,VWS V14.01,2013-02-15 06:55:00,
2013-02-14 23:00:00,43.9,42.8,30.52,ESE,118,0.0,0.0,96,0.00,,OVC014,0.01,VWS V14.01,2013-02-15 07:00:00,
2013-02-14 23:05:00,43.9,42.8,30.52,ESE,119,0.0,0.0,96,0.00,,OVC014,0.01,VWS V14.01,2013-02-15 07:05:00,
2013-02-14 23:10:00,43.9,42.8,30.52,ESE,118,0.0,0.0,96,0.00,,OVC014,0.01,VWS V14.01,2013-02-15 07:10:00,
2013-02-14 23:15:00,43.9,42.8,30.52,ESE,118,0.0,0.0,96,0.00,,OVC014,0.01,VWS V14.01,2013-02-15 07:15:00,
2013-02-14 23:20:00,43.9,42.8,30.52,ESE,118,0.0,0.0,96,0.00,,OVC014,0.01,VWS V14.01,2013-02-15 07:20:00,
2013-02-14 23:25:00,43.9,42.8,30.52,ESE,118,0.0,0.0,96,0.00,,OVC014,0.01,VWS V14.01,2013-02-15 07:25:00,
2013-02-14 23:30:00,43.9,42.8,30.52,ESE,118,0.0,0.0,96,0.00,,OVC014,0.01,VWS V14.01,2013-02-15 07:30:00,
2013-02-14 23:35:00,43.8,42.7,30.52,ESE,118,0.0,0.0,96,0.00,,OVC014,0.01,VWS V14.01,2013-02-15 07:35:00,
2013-02-14 23:40:00,43.9,42.8,30.52,ESE,118,0.0,0.0,96,0.00,,OVC014,0.01,VWS V14.01,2013-02-15 07:40:00,
2013-02-14 23:45:00,43.8,42.7,30.52,ESE,118,0.0,0.0,96,0.00,,OVC012,0.01,VWS V14.01,2013-02-15 07:45:00,
2013-02-14 23:50:00,43.8,42.7,30.52,ESE,119,0.0,0.0,96,0.00,,OVC012,0.01,VWS V14.01,2013-02-15 07:50:00,
2013-02-14 23:55:00,43.8,42.7,30.52,ESE,118,0.0,0.0,96,0.00,,OVC012,0.01,VWS V14.01,2013-02-15 07:55:00,